KLAF

Purdue University Airport

Lafayette, Indiana, USA
METAR KLAF 210654Z AUTO 07006KT 10SM FEW038 16/16 A3010 RMK AO2 SLP189 T01610156
Observed Flight Rules
May-21 @ 06:54 UTC (13 minutes ago) Visual Flight Rules
Wind Visibility Clouds
70° at 6 knots 10 miles
  • Few at 3,800' AGL
Temperatures Readings
Current 16°C / 61°F
Dewpoint 16°C / 61°F
Humidity 100%
Altimeter 30.1" Hg
Pressure 1018.9 hPa
Elevation 182
METAR KLAF 210654Z AUTO 07006KT 10SM FEW038 16/16 A3010 RMK AO2 SLP189 T01610156
Observed Flight Rules
May-21 @ 06:54 UTC
(13 minutes ago)
VFR
Wind Visibility
70° at 6 knots 10 miles
Clouds
  • Few at 3,800' AGL
Temperature Dewpoint
16°C / 61°F 16°C / 61°F
Humidity Altimeter Pressure
100% 30.1" Hg 1018.9 hPa